createdAt,value
2024-02-23T00:01:58.846Z,84.18
2024-02-23T00:04:31.105Z,84.34
2024-02-23T00:07:04.574Z,84.10
2024-02-23T00:09:36.925Z,84.07
2024-02-23T00:12:10.885Z,84.51
2024-02-23T00:14:43.189Z,84.74
2024-02-23T00:17:15.408Z,84.42
2024-02-23T00:19:50.376Z,84.54
2024-02-23T00:22:22.601Z,84.56
2024-02-23T00:24:54.737Z,84.74
2024-02-23T00:27:28.537Z,84.65
2024-02-23T00:30:00.667Z,84.69
2024-02-23T00:32:33.017Z,84.84
2024-02-23T00:35:05.573Z,84.95
2024-02-23T00:37:37.623Z,84.88
2024-02-23T00:40:11.979Z,85.03
2024-02-23T00:42:44.165Z,85.04
2024-02-23T00:45:16.306Z,85.25
2024-02-23T00:47:49.299Z,85.36
2024-02-23T00:50:22.164Z,85.39
2024-02-23T00:52:54.605Z,85.39
2024-02-23T00:55:28.022Z,85.60
2024-02-23T00:58:00.559Z,85.65
2024-02-23T01:00:33.600Z,85.75
2024-02-23T01:03:06.433Z,85.88
2024-02-23T01:05:39.624Z,86.09
2024-02-23T01:08:12.124Z,86.21
2024-02-23T01:10:44.324Z,86.34
2024-02-23T01:13:16.380Z,86.43
2024-02-23T01:15:48.810Z,86.66
2024-02-23T01:18:20.927Z,86.85
2024-02-23T01:20:53.133Z,86.67
2024-02-23T01:23:25.717Z,86.78
2024-02-23T01:26:00.085Z,86.84
2024-02-23T01:28:32.310Z,86.95
2024-02-23T01:31:05.454Z,87.05
2024-02-23T01:33:37.869Z,86.57
2024-02-23T01:36:11.220Z,86.61
2024-02-23T01:38:44.195Z,86.42
2024-02-23T01:41:16.408Z,86.53
2024-02-23T01:43:48.639Z,86.12
2024-02-23T01:46:21.703Z,86.43
2024-02-23T01:48:53.931Z,86.26
2024-02-23T01:51:26.699Z,86.25
2024-02-23T01:53:59.439Z,86.05
2024-02-23T01:56:32.224Z,85.98
2024-02-23T01:59:06.862Z,86.05
2024-02-23T02:01:39.088Z,85.91
2024-02-23T02:04:11.523Z,85.93
2024-02-23T02:06:44.207Z,85.83
2024-02-23T02:09:16.438Z,85.78
2024-02-23T02:11:52.520Z,85.58
2024-02-23T02:14:24.937Z,85.61
2024-02-23T02:16:57.141Z,85.38
2024-02-23T02:19:29.422Z,85.30
2024-02-23T02:22:01.680Z,85.59
2024-02-23T02:24:34.490Z,85.45
2024-02-23T02:27:07.834Z,85.73
2024-02-23T02:29:40.396Z,85.83
2024-02-23T02:32:12.462Z,86.22
2024-02-23T02:34:44.814Z,86.14
2024-02-23T02:37:17.084Z,86.60
2024-02-23T02:39:49.235Z,86.58
2024-02-23T02:42:21.694Z,87.03
2024-02-23T02:44:53.792Z,87.22
2024-02-23T02:47:26.016Z,87.21
2024-02-23T02:49:58.350Z,87.43
2024-02-23T02:52:30.493Z,87.66
2024-02-23T02:55:02.837Z,87.72
2024-02-23T02:57:34.944Z,87.92
2024-02-23T03:00:12.174Z,87.85
2024-02-23T03:02:44.313Z,88.08
2024-02-23T03:05:16.670Z,88.32
2024-02-23T03:07:49.173Z,88.47
2024-02-23T03:10:21.226Z,88.69
2024-02-23T03:12:53.553Z,88.74
2024-02-23T03:15:25.711Z,89.03
2024-02-23T03:17:59.530Z,89.11
2024-02-23T03:20:31.716Z,89.27
2024-02-23T03:23:04.884Z,89.62
2024-02-23T03:25:37.148Z,89.75
2024-02-23T03:28:09.880Z,90.01
2024-02-23T03:30:42.002Z,90.44
2024-02-23T03:33:14.213Z,90.64
2024-02-23T03:35:46.695Z,90.82
2024-02-23T03:38:18.968Z,91.19
2024-02-23T03:40:51.294Z,91.17
2024-02-23T03:43:23.872Z,91.40
2024-02-23T03:45:56.031Z,91.37
2024-02-23T03:48:28.488Z,91.56
2024-02-23T03:51:00.717Z,91.60
2024-02-23T03:53:32.900Z,91.66
2024-02-23T03:56:05.243Z,91.69
2024-02-23T03:58:37.484Z,91.89
2024-02-23T04:01:09.852Z,92.01
2024-02-23T04:03:42.186Z,92.16
2024-02-23T04:06:14.470Z,92.50
2024-02-23T04:08:48.961Z,92.87
2024-02-23T04:11:22.608Z,92.97
2024-02-23T04:13:54.909Z,93.18
2024-02-23T04:16:28.743Z,93.12
2024-02-23T04:19:01.497Z,93.35
2024-02-23T04:21:33.809Z,93.88
2024-02-23T04:24:06.089Z,93.67
2024-02-23T04:26:38.462Z,93.92
2024-02-23T04:29:10.886Z,93.98
2024-02-23T04:31:42.908Z,93.89
2024-02-23T04:34:17.359Z,93.93
2024-02-23T04:36:49.424Z,94.09
2024-02-23T04:39:21.731Z,94.40
2024-02-23T04:41:55.120Z,94.57
2024-02-23T04:44:27.600Z,94.53
2024-02-23T04:46:59.742Z,94.39
2024-02-23T04:49:31.940Z,94.73
2024-02-23T04:52:04.071Z,94.87
2024-02-23T04:54:36.150Z,95.19
2024-02-23T04:57:08.501Z,95.28
2024-02-23T04:59:40.667Z,95.27
2024-02-23T05:02:12.942Z,95.50
2024-02-23T05:04:45.405Z,95.36
2024-02-23T05:07:17.538Z,95.52
2024-02-23T05:09:49.773Z,95.74
2024-02-23T05:12:21.974Z,95.64
2024-02-23T05:14:54.594Z,96.02
2024-02-23T05:17:26.803Z,95.99
2024-02-23T05:19:59.089Z,95.97
2024-02-23T05:22:31.238Z,96.10
2024-02-23T05:25:04.787Z,96.06
2024-02-23T05:27:37.406Z,96.16
2024-02-23T05:30:11.813Z,96.20
2024-02-23T05:32:44.293Z,96.23
2024-02-23T05:35:16.874Z,96.09
2024-02-23T05:37:49.150Z,95.95
2024-02-23T05:40:21.792Z,96.03
2024-02-23T05:42:53.974Z,95.91
2024-02-23T05:45:26.111Z,95.96
2024-02-23T05:47:58.386Z,95.83
2024-02-23T05:50:30.595Z,96.19
2024-02-23T05:53:02.780Z,96.28
2024-02-23T05:55:35.019Z,96.22
2024-02-23T05:58:07.347Z,96.21
2024-02-23T06:00:40.129Z,96.19
2024-02-23T06:03:12.313Z,96.56
2024-02-23T06:05:44.668Z,96.45
2024-02-23T06:08:17.029Z,96.67
2024-02-23T06:10:49.336Z,96.74
2024-02-23T06:13:21.676Z,96.75
2024-02-23T06:15:55.076Z,96.81
2024-02-23T06:18:27.184Z,96.92
2024-02-23T06:20:59.405Z,96.90
2024-02-23T06:23:31.929Z,96.82
2024-02-23T06:26:04.286Z,96.95
2024-02-23T06:28:38.358Z,96.94
2024-02-23T06:31:11.287Z,96.87
2024-02-23T06:33:43.613Z,97.00
2024-02-23T06:36:15.829Z,96.77
2024-02-23T06:38:48.129Z,96.69
2024-02-23T06:41:20.463Z,96.65
2024-02-23T06:43:53.570Z,96.58
2024-02-23T06:46:25.699Z,96.90
2024-02-23T06:48:58.400Z,96.89
2024-02-23T06:51:31.107Z,96.70
2024-02-23T06:54:04.968Z,96.42
2024-02-23T06:56:37.678Z,96.40
2024-02-23T06:59:09.793Z,96.28
2024-02-23T07:01:52.155Z,96.08
2024-02-23T07:04:24.725Z,96.20
2024-02-23T07:06:57.390Z,96.26
2024-02-23T07:09:29.719Z,96.23
2024-02-23T07:12:02.338Z,96.20
2024-02-23T07:14:34.721Z,96.11
2024-02-23T07:17:07.124Z,95.98
2024-02-23T07:19:39.399Z,96.20
2024-02-23T07:22:11.625Z,95.99
2024-02-23T07:24:45.122Z,96.02
2024-02-23T07:27:17.286Z,95.88
2024-02-23T07:29:49.458Z,96.21
2024-02-23T07:32:21.834Z,96.08
2024-02-23T07:34:54.614Z,95.92
2024-02-23T07:37:28.167Z,95.98
2024-02-23T07:40:00.535Z,95.90
2024-02-23T07:42:32.883Z,95.98
2024-02-23T07:45:05.541Z,96.02
2024-02-23T07:47:37.901Z,95.89
2024-02-23T07:50:11.409Z,96.16
2024-02-23T07:52:43.868Z,96.07
2024-02-23T07:55:17.521Z,96.19
2024-02-23T07:57:49.913Z,96.24
2024-02-23T08:00:24.462Z,95.93
2024-02-23T08:02:58.130Z,96.10
2024-02-23T08:05:30.726Z,96.02
2024-02-23T08:08:03.076Z,95.90
2024-02-23T08:10:35.380Z,95.83
2024-02-23T08:13:07.997Z,95.85
2024-02-23T08:15:40.253Z,95.60
2024-02-23T08:18:12.798Z,95.41
2024-02-23T08:20:45.069Z,95.58
2024-02-23T08:23:17.321Z,95.43
2024-02-23T08:25:49.543Z,95.39
2024-02-23T08:28:21.890Z,95.22
2024-02-23T08:30:54.431Z,95.20
2024-02-23T08:33:26.593Z,95.34
2024-02-23T08:35:58.931Z,95.23
2024-02-23T08:38:31.559Z,94.92
2024-02-23T08:41:04.826Z,94.88
2024-02-23T08:43:37.361Z,94.82
2024-02-23T08:46:10.635Z,94.45
2024-02-23T08:48:43.398Z,94.48
2024-02-23T08:51:16.058Z,94.49
2024-02-23T08:53:48.258Z,94.41
2024-02-23T08:56:20.515Z,94.25
2024-02-23T08:58:52.882Z,94.24
2024-02-23T09:01:25.240Z,93.89
2024-02-23T09:03:57.627Z,93.65
2024-02-23T09:06:30.255Z,93.45
2024-02-23T09:09:02.813Z,93.39
2024-02-23T09:11:35.235Z,92.73
2024-02-23T09:14:07.776Z,92.53
2024-02-23T09:16:40.054Z,92.41
2024-02-23T09:19:12.449Z,91.73
2024-02-23T09:21:44.658Z,91.26
2024-02-23T09:24:17.360Z,91.49
2024-02-23T09:26:51.701Z,91.36
2024-02-23T09:29:23.984Z,91.42
2024-02-23T09:31:56.492Z,91.40
2024-02-23T09:34:28.836Z,91.42
2024-02-23T09:37:00.999Z,90.99
2024-02-23T09:39:33.148Z,91.21
2024-02-23T09:42:09.265Z,91.13
2024-02-23T09:44:39.846Z,91.13
2024-02-23T09:47:13.250Z,90.78
2024-02-23T09:49:46.535Z,90.62
2024-02-23T09:52:19.739Z,90.40
2024-02-23T09:54:52.281Z,90.38
2024-02-23T09:57:25.509Z,90.11
2024-02-23T09:59:58.646Z,90.20
2024-02-23T10:02:32.963Z,90.02
2024-02-23T10:05:06.063Z,89.75
2024-02-23T10:07:38.784Z,89.71
2024-02-23T10:10:13.187Z,89.55
2024-02-23T10:12:46.126Z,89.48
2024-02-23T10:15:19.052Z,89.59
2024-02-23T10:17:51.346Z,89.55
2024-02-23T10:20:23.741Z,89.56
2024-02-23T10:22:56.651Z,89.23
2024-02-23T10:25:28.716Z,89.22
2024-02-23T10:28:01.317Z,89.17
2024-02-23T10:30:33.555Z,88.99
2024-02-23T10:33:07.684Z,88.98
2024-02-23T10:35:43.322Z,88.91
2024-02-23T10:38:19.542Z,88.97
2024-02-23T10:40:53.032Z,88.92
2024-02-23T10:43:32.413Z,88.62
2024-02-23T10:46:09.254Z,88.85
2024-02-23T10:48:43.347Z,89.29
2024-02-23T10:51:20.724Z,89.15
2024-02-23T10:53:57.392Z,89.24
2024-02-23T10:56:30.035Z,89.56
2024-02-23T10:59:02.609Z,89.42
2024-02-23T11:01:37.536Z,89.70
2024-02-23T11:04:12.411Z,89.94
2024-02-23T11:06:51.187Z,90.20
2024-02-23T11:09:27.321Z,89.75
2024-02-23T11:12:00.977Z,90.27
2024-02-23T11:14:38.115Z,90.09
2024-02-23T11:17:20.205Z,90.10
2024-02-23T11:19:56.705Z,90.29
2024-02-23T11:22:37.688Z,90.25
2024-02-23T11:25:12.433Z,90.38
2024-02-23T11:27:45.007Z,90.23
2024-02-23T11:30:21.627Z,90.29
2024-02-23T11:33:01.221Z,90.60
2024-02-23T11:35:33.756Z,90.75
2024-02-23T11:38:08.066Z,91.17
2024-02-23T11:40:41.052Z,91.58
2024-02-23T11:43:14.879Z,91.47
2024-02-23T11:45:49.315Z,91.64
2024-02-23T11:48:23.924Z,91.44
2024-02-23T11:50:57.994Z,91.59
2024-02-23T11:53:31.404Z,92.15
2024-02-23T11:56:04.232Z,92.17
2024-02-23T11:58:36.759Z,92.22
2024-02-23T12:01:09.086Z,91.93
2024-02-23T12:03:42.024Z,91.95
2024-02-23T12:06:16.745Z,92.03
2024-02-23T12:08:49.836Z,91.76
2024-02-23T12:11:22.266Z,92.04
2024-02-23T12:13:55.050Z,91.49
2024-02-23T12:16:28.087Z,91.48
2024-02-23T12:19:03.377Z,91.08
2024-02-23T12:21:38.580Z,90.75
2024-02-23T12:24:11.601Z,90.78
2024-02-23T12:26:43.767Z,90.57
2024-02-23T12:29:16.095Z,90.35
2024-02-23T12:31:48.423Z,90.08
2024-02-23T12:34:22.303Z,89.37
2024-02-23T12:36:54.483Z,89.21
2024-02-23T12:39:27.898Z,88.19
2024-02-23T12:42:00.202Z,87.98
2024-02-23T12:44:32.540Z,88.47
2024-02-23T12:47:05.138Z,88.24
2024-02-23T12:49:37.494Z,87.94
2024-02-23T12:52:10.078Z,87.97
2024-02-23T12:54:43.271Z,88.10
2024-02-23T12:57:15.589Z,87.56
2024-02-23T12:59:47.602Z,87.85
2024-02-23T13:02:20.308Z,87.63
2024-02-23T13:04:52.508Z,87.22
2024-02-23T13:07:24.579Z,87.59
2024-02-23T13:09:56.761Z,87.35
2024-02-23T13:12:29.089Z,86.05
2024-02-23T13:15:01.528Z,86.07
2024-02-23T13:17:33.983Z,85.13
2024-02-23T13:20:11.682Z,85.48
2024-02-23T13:22:44.448Z,85.09
2024-02-23T13:25:16.608Z,84.72
2024-02-23T13:27:48.713Z,83.39
2024-02-23T13:30:21.244Z,82.54
2024-02-23T13:32:54.483Z,83.75
2024-02-23T13:35:27.182Z,83.68
2024-02-23T13:37:59.420Z,83.27
2024-02-23T13:40:32.904Z,83.53
2024-02-23T13:43:05.341Z,83.19
2024-02-23T13:45:53.161Z,83.00
2024-02-23T13:48:25.511Z,82.40
2024-02-23T13:50:57.948Z,82.77
2024-02-23T13:53:30.275Z,83.56
2024-02-23T13:56:02.990Z,83.83
2024-02-23T13:58:35.306Z,83.75
2024-02-23T14:01:07.687Z,83.63
2024-02-23T14:03:40.217Z,83.05
2024-02-23T14:06:12.665Z,82.48
2024-02-23T14:08:45.568Z,82.60
2024-02-23T14:11:19.386Z,82.66
2024-02-23T14:13:52.215Z,83.26
2024-02-23T14:16:25.696Z,83.47
2024-02-23T14:18:57.979Z,83.05
2024-02-23T14:21:30.656Z,83.39
2024-02-23T14:24:03.019Z,83.16
2024-02-23T14:26:35.603Z,82.43
2024-02-23T14:29:07.866Z,82.54
2024-02-23T14:31:39.927Z,83.38
2024-02-23T14:34:12.176Z,84.81
2024-02-23T14:36:45.146Z,85.12
2024-02-23T14:39:17.391Z,85.27
2024-02-23T14:41:49.632Z,85.33
2024-02-23T14:44:22.447Z,85.01
2024-02-23T14:46:55.076Z,85.36
2024-02-23T14:49:27.504Z,85.22
2024-02-23T14:51:59.856Z,85.02
2024-02-23T14:54:32.037Z,85.25
2024-02-23T14:57:04.990Z,85.18
2024-02-23T14:59:42.737Z,85.68
2024-02-23T15:02:21.021Z,86.75
2024-02-23T15:04:53.393Z,87.23
2024-02-23T15:07:25.822Z,87.15
2024-02-23T15:09:58.066Z,86.91
2024-02-23T15:12:30.593Z,87.19
2024-02-23T15:15:04.818Z,87.54
2024-02-23T15:17:37.289Z,87.79
2024-02-23T15:20:12.395Z,87.99
2024-02-23T15:22:47.036Z,87.91
2024-02-23T15:25:19.574Z,88.10
2024-02-23T15:27:53.950Z,88.07
2024-02-23T15:30:26.817Z,88.18
2024-02-23T15:32:59.239Z,88.03
2024-02-23T15:35:31.483Z,87.88
2024-02-23T15:38:03.663Z,88.39
2024-02-23T15:40:35.801Z,88.71
2024-02-23T15:43:08.311Z,88.67
2024-02-23T15:45:40.436Z,89.86
2024-02-23T15:48:14.752Z,90.12
2024-02-23T15:51:06.452Z,90.06
2024-02-23T15:53:39.844Z,90.52
2024-02-23T15:56:12.561Z,90.70
2024-02-23T15:58:44.769Z,91.10
2024-02-23T16:01:17.078Z,90.64
2024-02-23T16:03:49.386Z,90.74
2024-02-23T16:06:21.772Z,90.87
2024-02-23T16:08:53.890Z,91.40
2024-02-23T16:11:26.203Z,91.01
2024-02-23T16:13:58.623Z,90.51
2024-02-23T16:16:30.986Z,91.05
2024-02-23T16:19:04.455Z,92.32
2024-02-23T16:21:38.802Z,92.40
2024-02-23T16:24:11.335Z,91.45
2024-02-23T16:26:43.532Z,91.59
2024-02-23T16:29:15.979Z,91.65
2024-02-23T16:31:48.267Z,91.20
2024-02-23T16:34:20.304Z,90.91
2024-02-23T16:36:52.416Z,91.15
2024-02-23T16:39:24.423Z,91.54
2024-02-23T16:41:56.781Z,91.29
2024-02-23T16:44:28.949Z,91.42
2024-02-23T16:47:01.139Z,91.60
2024-02-23T16:49:33.594Z,91.17
2024-02-23T16:52:06.242Z,91.93
2024-02-23T16:54:38.594Z,92.65
2024-02-23T16:57:11.575Z,93.38
2024-02-23T16:59:43.789Z,92.94
2024-02-23T17:02:16.047Z,92.35
2024-02-23T17:04:48.233Z,92.34
2024-02-23T17:07:20.793Z,92.16
2024-02-23T17:09:52.943Z,92.86
2024-02-23T17:12:25.714Z,93.91
2024-02-23T17:14:59.659Z,93.54
2024-02-23T17:17:31.894Z,92.80
2024-02-23T17:20:05.471Z,93.04
2024-02-23T17:22:38.099Z,93.10
2024-02-23T17:25:11.020Z,92.83
2024-02-23T17:27:43.248Z,92.82
2024-02-23T17:30:16.183Z,92.82
2024-02-23T17:32:48.627Z,93.31
2024-02-23T17:35:21.093Z,93.45
2024-02-23T17:37:53.352Z,94.69
2024-02-23T17:40:25.586Z,93.53
2024-02-23T17:42:58.083Z,94.30
2024-02-23T17:45:30.270Z,94.70
2024-02-23T17:48:02.925Z,95.59
2024-02-23T17:50:35.204Z,95.83
2024-02-23T17:53:07.686Z,95.82
2024-02-23T17:55:39.874Z,96.17
2024-02-23T17:58:19.671Z,96.57
2024-02-23T18:00:53.254Z,96.43
2024-02-23T18:03:25.500Z,96.75
2024-02-23T18:05:58.384Z,96.72
2024-02-23T18:08:30.568Z,96.42
2024-02-23T18:11:06.110Z,96.25
2024-02-23T18:13:40.899Z,97.16
2024-02-23T18:16:15.134Z,96.16
2024-02-23T18:18:47.795Z,96.32
2024-02-23T18:23:55.542Z,95.95
2024-02-23T18:26:27.720Z,96.02
2024-02-23T18:29:00.741Z,95.65
2024-02-23T18:31:33.156Z,95.66
2024-02-23T18:34:05.796Z,95.45
2024-02-23T18:36:38.098Z,95.30
2024-02-23T18:39:12.420Z,95.90
2024-02-23T18:41:44.806Z,95.90
2024-02-23T18:44:18.230Z,95.91
2024-02-23T18:46:51.292Z,95.86
2024-02-23T18:49:23.550Z,95.63
2024-02-23T18:51:55.753Z,95.87
2024-02-23T18:54:28.229Z,95.98
2024-02-23T18:57:00.661Z,95.59
2024-02-23T18:59:33.092Z,95.92
2024-02-23T19:02:05.639Z,97.14
2024-02-23T19:04:37.850Z,96.27
2024-02-23T19:07:10.026Z,95.62
2024-02-23T19:09:42.911Z,95.30
2024-02-23T19:12:16.243Z,95.50
2024-02-23T19:14:48.947Z,95.71
2024-02-23T19:17:24.336Z,95.85
2024-02-23T19:19:56.972Z,95.80
2024-02-23T19:22:29.602Z,95.39
2024-02-23T19:25:01.885Z,95.74
2024-02-23T19:27:37.305Z,95.86
2024-02-23T19:30:13.712Z,95.60
2024-02-23T19:32:46.191Z,95.78
2024-02-23T19:35:20.052Z,95.87
2024-02-23T19:37:52.165Z,95.96
2024-02-23T19:40:26.260Z,95.83
2024-02-23T19:42:58.553Z,95.70
2024-02-23T19:45:31.885Z,95.49
2024-02-23T19:48:04.184Z,95.46
2024-02-23T19:50:37.240Z,95.47
2024-02-23T19:53:11.492Z,95.72
2024-02-23T19:55:45.839Z,95.75
2024-02-23T19:58:19.564Z,95.62
2024-02-23T20:00:51.907Z,95.66
2024-02-23T20:03:24.288Z,96.26
2024-02-23T20:06:06.933Z,95.92
2024-02-23T20:08:40.639Z,96.00
2024-02-23T20:11:13.354Z,95.64
2024-02-23T20:13:47.888Z,96.27
2024-02-23T20:16:20.126Z,96.07
2024-02-23T20:18:52.553Z,96.10
2024-02-23T20:21:25.336Z,96.19
2024-02-23T20:24:00.495Z,96.39
2024-02-23T20:26:33.129Z,96.35
2024-02-23T20:29:08.782Z,96.23
2024-02-23T20:31:45.491Z,96.21
2024-02-23T20:34:18.791Z,96.11
2024-02-23T20:36:51.488Z,96.25
2024-02-23T20:39:25.898Z,95.93
2024-02-23T20:41:58.171Z,96.50
2024-02-23T20:44:30.956Z,96.60
2024-02-23T20:47:03.594Z,96.99
2024-02-23T20:49:36.404Z,96.61
2024-02-23T20:52:11.360Z,96.74
2024-02-23T20:54:47.770Z,96.10
2024-02-23T20:57:20.606Z,96.31
2024-02-23T20:59:53.210Z,96.25
2024-02-23T21:02:25.563Z,96.50
2024-02-23T21:04:58.237Z,96.56
2024-02-23T21:07:30.578Z,96.69
2024-02-23T21:10:03.641Z,96.65
2024-02-23T21:12:39.156Z,96.60
2024-02-23T21:15:12.548Z,96.92
2024-02-23T21:17:44.998Z,96.91
2024-02-23T21:20:18.651Z,96.58
2024-02-23T21:22:51.001Z,97.23
2024-02-23T21:25:23.277Z,97.01
2024-02-23T21:27:55.916Z,97.15
2024-02-23T21:30:28.353Z,97.37
2024-02-23T21:33:00.839Z,97.31
2024-02-23T21:35:35.731Z,97.84
2024-02-23T21:38:09.653Z,97.43
2024-02-23T21:40:42.040Z,97.20
2024-02-23T21:43:14.284Z,97.49
2024-02-23T21:45:46.540Z,97.32
2024-02-23T21:48:18.792Z,97.31
2024-02-23T21:50:51.373Z,97.27
2024-02-23T21:53:23.731Z,97.09
2024-02-23T21:55:56.511Z,96.99
2024-02-23T21:58:28.761Z,97.07
2024-02-23T22:01:01.366Z,97.19
2024-02-23T22:03:34.114Z,97.36
2024-02-23T22:06:07.428Z,97.28
2024-02-23T22:08:40.052Z,97.16
2024-02-23T22:11:12.357Z,97.12
2024-02-23T22:13:48.720Z,97.25
2024-02-23T22:16:20.924Z,97.30
2024-02-23T22:18:52.999Z,97.47
2024-02-23T22:21:25.356Z,97.49
2024-02-23T22:23:58.011Z,97.37
2024-02-23T22:26:33.679Z,97.55
2024-02-23T22:29:05.995Z,98.13
2024-02-23T22:31:38.363Z,98.11
2024-02-23T22:34:10.568Z,98.04
2024-02-23T22:36:43.984Z,97.92
2024-02-23T22:39:16.126Z,97.80
2024-02-23T22:41:48.484Z,97.62
2024-02-23T22:44:20.829Z,98.06
2024-02-23T22:46:55.792Z,98.73
2024-02-23T22:49:28.171Z,98.45
2024-02-23T22:52:00.375Z,98.12
2024-02-23T22:54:32.501Z,98.46
2024-02-23T22:57:05.076Z,98.03
2024-02-23T22:59:37.170Z,98.38
2024-02-23T23:02:09.503Z,98.00
2024-02-23T23:04:41.783Z,97.73
2024-02-23T23:07:14.059Z,97.65
2024-02-23T23:09:46.559Z,97.90
2024-02-23T23:12:18.831Z,97.91
2024-02-23T23:14:51.004Z,98.10
2024-02-23T23:17:23.204Z,98.19
2024-02-23T23:19:55.332Z,97.79
2024-02-23T23:22:27.744Z,97.97
2024-02-23T23:24:59.752Z,97.81
2024-02-23T23:27:32.026Z,97.67
2024-02-23T23:30:04.417Z,98.08
2024-02-23T23:32:36.782Z,98.04
2024-02-23T23:35:09.946Z,98.07
2024-02-23T23:37:42.846Z,98.73
2024-02-23T23:40:17.427Z,98.52
2024-02-23T23:42:49.635Z,98.17
2024-02-23T23:45:21.824Z,98.31
2024-02-23T23:47:54.142Z,98.10
2024-02-23T23:50:26.522Z,98.60
2024-02-23T23:52:58.693Z,98.31
2024-02-23T23:55:31.314Z,97.95
2024-02-23T23:58:04.359Z,98.81
